Fortune Amaryllis — VRDT3 — position and weather

sailwx.info

Track history (hours):
 
Tides and Currents Weather Stations Pressure Air Temp Water Temp Dewpoint Dewpoint Depression Visibility Wind Speed Wind Dir Waves Ship Positions

Fortune Amaryllis

Last reported at 2014-Jul-18 23:27 UTC. Time now 2014-Aug-02 04:33 UTC.
Position S 36°28' E 176°01'.
Warning: this ship's position is 14 days out of date.

Length 175 m; draft 6.7 m.

Type: Cargo ship. MMSI: 477046800.

Date/timePositionNaut miles runAvg speedWind from/ knotsBaromVisibWave heightAir tempDewpointWater temp
2014-Jul-18 23:27S 36°28' E 176°01'2211.1
2014-Jul-18 21:28S 36°11' E 175°45'1111.3
2014-Jul-18 20:29S 36°02' E 175°37'1111.4
2014-Jul-18 19:30S 35°53' E 175°28'  
2014-Jul-13 17:06S 26°52' E 153°47'5 8.3
2014-Jul-13 16:29S 26°51' E 153°42'7 8.0
2014-Jul-13 15:33S 26°49' E 153°34'9 8.7
2014-Jul-13 14:33S 26°47' E 153°25'1010.1
2014-Jul-13 13:33S 26°44' E 153°14'8 8.2
2014-Jul-13 12:33S 26°51' E 153°09'1312.9
2014-Jul-13 11:34S 27°02' E 153°15'9 9.4
2014-Jul-13 10:34S 27°11' E 153°18'1212.4
2014-Jul-13 09:34S 27°22' E 153°11'5 4.7
2014-Jul-13 08:31S 27°26' E 153°07'0 0.1
2014-Jul-13 07:31S 27°26' E 153°07'0 0.0
2014-Jul-13 06:31S 27°26' E 153°07'0 0.0
2014-Jul-13 05:25S 27°26' E 153°07'0 0.0
2014-Jul-13 01:19S 27°26' E 153°07'0 0.0
2014-Jul-13 00:33S 27°26' E 153°07'0 0.1
2014-Jul-12 23:31S 27°26' E 153°07'0 0.1
2014-Jul-12 22:28S 27°26' E 153°07'0 0.1
2014-Jul-12 21:31S 27°26' E 153°07'0 0.0
2014-Jul-12 20:31S 27°26' E 153°07'0 0.0
2014-Jul-12 19:31S 27°26' E 153°07'0 0.1
2014-Jul-12 18:31S 27°26' E 153°07'0 0.1
2014-Jul-12 17:31S 27°26' E 153°07'0 0.0
2014-Jul-12 16:31S 27°26' E 153°07'0 0.0
2014-Jul-12 15:31S 27°26' E 153°07'0 0.0
2014-Jul-12 14:25S 27°26' E 153°07'0 0.1
2014-Jul-12 13:28S 27°26' E 153°07'0 0.1
2014-Jul-12 12:28S 27°26' E 153°07'0 0.1
2014-Jul-12 11:31S 27°26' E 153°07'0 0.0
2014-Jul-12 10:31S 27°26' E 153°07'0 0.1
2014-Jul-12 09:31S 27°26' E 153°07'0 0.1
2014-Jul-12 08:31S 27°26' E 153°07'0 0.0
2014-Jul-12 07:31S 27°26' E 153°07'0 0.0
2014-Jul-12 05:31S 27°26' E 153°07'0 0.0
2014-Jul-12 04:28S 27°26' E 153°07'0 0.1
2014-Jul-12 03:31S 27°26' E 153°07'0 0.0
2014-Jul-12 02:28S 27°26' E 153°07'0 0.1
2014-Jul-12 01:25S 27°26' E 153°07'0 0.0
2014-Jul-12 00:19S 27°26' E 153°07'0 0.0
2014-Jul-11 23:22S 27°26' E 153°07'0 0.1
2014-Jul-11 22:31S 27°26' E 153°07'0 0.1
2014-Jul-11 21:28S 27°26' E 153°07'0 0.0
2014-Jul-11 20:31S 27°26' E 153°07'0 0.0
2014-Jul-11 19:31S 27°26' E 153°07'0 0.1
2014-Jul-11 18:31S 27°26' E 153°07'0 0.1
2014-Jul-11 17:31S 27°26' E 153°07'0 0.0
2014-Jul-11 16:31S 27°26' E 153°07'0 0.1
2014-Jul-11 15:31S 27°26' E 153°07'0 0.1
2014-Jul-11 14:31S 27°26' E 153°07'0 0.0
2014-Jul-11 13:31S 27°26' E 153°07'0 0.1
2014-Jul-11 12:31S 27°26' E 153°07'0 0.1
2014-Jul-11 11:31S 27°26' E 153°07'0 0.0
2014-Jul-11 10:28S 27°26' E 153°07'0 0.1
2014-Jul-11 09:31S 27°26' E 153°07'0 0.1
2014-Jul-11 08:31S 27°26' E 153°07'0 0.1
2014-Jul-11 07:31S 27°26' E 153°07'0 0.1
2014-Jul-11 06:31S 27°26' E 153°07'0 0.0
2014-Jul-11 05:22S 27°26' E 153°07'0 0.1
2014-Jul-11 04:31S 27°26' E 153°07'0 0.1
2014-Jul-11 03:31S 27°26' E 153°07'0 0.1
2014-Jul-11 02:28S 27°26' E 153°07'0 0.0
2014-Jul-11 01:28S 27°26' E 153°07'0 0.1
2014-Jul-11 00:31S 27°26' E 153°07'0 0.1
2014-Jul-10 23:33S 27°26' E 153°07'0 0.0
2014-Jul-10 22:33S 27°26' E 153°07'0 0.0
2014-Jul-10 21:33S 27°26' E 153°07'0 0.0
2014-Jul-10 20:32S 27°26' E 153°07'0 0.0
2014-Jul-10 19:32S 27°26' E 153°07'0 0.1
2014-Jul-10 18:32S 27°26' E 153°07'0 0.1
2014-Jul-10 17:33S 27°26' E 153°07'0 0.0
2014-Jul-10 16:33S 27°26' E 153°07'0 0.1
2014-Jul-10 15:32S 27°26' E 153°07'0 0.0
2014-Jul-10 14:32S 27°26' E 153°07'0 0.1
2014-Jul-10 13:32S 27°26' E 153°07'0 0.0
2014-Jul-10 12:32S 27°26' E 153°07'0 0.0
2014-Jul-10 11:32S 27°26' E 153°07'0 0.0
2014-Jul-10 10:32S 27°26' E 153°07'0 0.1
2014-Jul-10 09:32S 27°26' E 153°07'0 0.0
2014-Jul-10 08:26S 27°26' E 153°07'0 0.1
2014-Jul-10 07:26S 27°26' E 153°07'0 0.1
2014-Jul-10 06:32S 27°26' E 153°07'0 0.0
2014-Jul-10 05:26S 27°26' E 153°07'0 0.0
2014-Jul-10 03:32S 27°26' E 153°07'0 0.0
2014-Jul-10 02:08S 27°26' E 153°07'0 0.0
2014-Jul-10 01:11S 27°26' E 153°07'0 0.0
2014-Jul-10 00:26S 27°26' E 153°07'0 0.0
2014-Jul-09 23:26S 27°26' E 153°07'0 0.0
2014-Jul-09 22:32S 27°26' E 153°07'0 0.0
2014-Jul-09 21:32S 27°26' E 153°07'0 0.1
2014-Jul-09 20:32S 27°26' E 153°07'0 0.0
2014-Jul-09 19:32S 27°26' E 153°07'0 0.0
2014-Jul-09 18:32S 27°26' E 153°07'0 0.1
2014-Jul-09 17:32S 27°26' E 153°07'0 0.0
2014-Jul-09 16:32S 27°26' E 153°07'0 0.1
2014-Jul-09 15:32S 27°26' E 153°07'0 0.0
2014-Jul-09 14:32S 27°26' E 153°07'0 0.1
2014-Jul-09 13:32S 27°26' E 153°07'0 0.1
2014-Jul-09 12:32S 27°26' E 153°07'0 0.1
2014-Jul-09 11:33S 27°26' E 153°07'0 0.1
2014-Jul-09 10:33S 27°26' E 153°07'0 0.0
2014-Jul-09 09:34S 27°26' E 153°07'2 1.8
2014-Jul-09 08:34S 27°25' E 153°09'7 7.0
2014-Jul-09 07:33S 27°18' E 153°13'1110.6
2014-Jul-09 06:34S 27°11' E 153°21'1212.4
2014-Jul-09 05:34S 26°60' E 153°14'1111.0
2014-Jul-09 04:34S 26°49' E 153°10'8 7.6
2014-Jul-09 03:33S 26°42' E 153°13'2 1.6
2014-Jul-09 02:08S 26°41' E 153°15'0 0.1
2014-Jul-09 01:32S 26°41' E 153°15'0 0.0
2014-Jul-09 00:28S 26°41' E 153°15'0 0.0
2014-Jul-08 23:31S 26°41' E 153°15'  
Track history (hours):
 
Tides and Currents Weather Stations Pressure Air Temp Water Temp Dewpoint Dewpoint Depression Visibility Wind Speed Wind Dir Waves Ship Positions

Fortune Amaryllis

Last reported at 2014-Jul-18 23:27 UTC. Time now 2014-Aug-02 04:33 UTC.
Position S 36°28' E 176°01'.
Warning: this ship's position is 14 days out of date.

Length 175 m; draft 6.7 m.

Type: Cargo ship. MMSI: 477046800.

Date/timePositionNaut miles runAvg speedWind from/ knotsBaromVisibWave heightAir tempDewpointWater temp
2014-Jul-18 23:27S 36°28' E 176°01'2211.1
2014-Jul-18 21:28S 36°11' E 175°45'1111.3
2014-Jul-18 20:29S 36°02' E 175°37'1111.4
2014-Jul-18 19:30S 35°53' E 175°28'  
2014-Jul-13 17:06S 26°52' E 153°47'5 8.3
2014-Jul-13 16:29S 26°51' E 153°42'7 8.0
2014-Jul-13 15:33S 26°49' E 153°34'9 8.7
2014-Jul-13 14:33S 26°47' E 153°25'1010.1
2014-Jul-13 13:33S 26°44' E 153°14'8 8.2
2014-Jul-13 12:33S 26°51' E 153°09'1312.9
2014-Jul-13 11:34S 27°02' E 153°15'9 9.4
2014-Jul-13 10:34S 27°11' E 153°18'1212.4
2014-Jul-13 09:34S 27°22' E 153°11'5 4.7
2014-Jul-13 08:31S 27°26' E 153°07'0 0.1
2014-Jul-13 07:31S 27°26' E 153°07'0 0.0
2014-Jul-13 06:31S 27°26' E 153°07'0 0.0
2014-Jul-13 05:25S 27°26' E 153°07'0 0.0
2014-Jul-13 01:19S 27°26' E 153°07'0 0.0
2014-Jul-13 00:33S 27°26' E 153°07'0 0.1
2014-Jul-12 23:31S 27°26' E 153°07'0 0.1
2014-Jul-12 22:28S 27°26' E 153°07'0 0.1
2014-Jul-12 21:31S 27°26' E 153°07'0 0.0
2014-Jul-12 20:31S 27°26' E 153°07'0 0.0
2014-Jul-12 19:31S 27°26' E 153°07'0 0.1
2014-Jul-12 18:31S 27°26' E 153°07'0 0.1
2014-Jul-12 17:31S 27°26' E 153°07'0 0.0
2014-Jul-12 16:31S 27°26' E 153°07'0 0.0
2014-Jul-12 15:31S 27°26' E 153°07'0 0.0
2014-Jul-12 14:25S 27°26' E 153°07'0 0.1
2014-Jul-12 13:28S 27°26' E 153°07'0 0.1
2014-Jul-12 12:28S 27°26' E 153°07'0 0.1
2014-Jul-12 11:31S 27°26' E 153°07'0 0.0
2014-Jul-12 10:31S 27°26' E 153°07'0 0.1
2014-Jul-12 09:31S 27°26' E 153°07'0 0.1
2014-Jul-12 08:31S 27°26' E 153°07'0 0.0
2014-Jul-12 07:31S 27°26' E 153°07'0 0.0
2014-Jul-12 05:31S 27°26' E 153°07'0 0.0
2014-Jul-12 04:28S 27°26' E 153°07'0 0.1
2014-Jul-12 03:31S 27°26' E 153°07'0 0.0
2014-Jul-12 02:28S 27°26' E 153°07'0 0.1
2014-Jul-12 01:25S 27°26' E 153°07'0 0.0
2014-Jul-12 00:19S 27°26' E 153°07'0 0.0
2014-Jul-11 23:22S 27°26' E 153°07'0 0.1
2014-Jul-11 22:31S 27°26' E 153°07'0 0.1
2014-Jul-11 21:28S 27°26' E 153°07'0 0.0
2014-Jul-11 20:31S 27°26' E 153°07'0 0.0
2014-Jul-11 19:31S 27°26' E 153°07'0 0.1
2014-Jul-11 18:31S 27°26' E 153°07'0 0.1
2014-Jul-11 17:31S 27°26' E 153°07'0 0.0
2014-Jul-11 16:31S 27°26' E 153°07'0 0.1
2014-Jul-11 15:31S 27°26' E 153°07'0 0.1
2014-Jul-11 14:31S 27°26' E 153°07'0 0.0
2014-Jul-11 13:31S 27°26' E 153°07'0 0.1
2014-Jul-11 12:31S 27°26' E 153°07'0 0.1
2014-Jul-11 11:31S 27°26' E 153°07'0 0.0
2014-Jul-11 10:28S 27°26' E 153°07'0 0.1
2014-Jul-11 09:31S 27°26' E 153°07'0 0.1
2014-Jul-11 08:31S 27°26' E 153°07'0 0.1
2014-Jul-11 07:31S 27°26' E 153°07'0 0.1
2014-Jul-11 06:31S 27°26' E 153°07'0 0.0
2014-Jul-11 05:22S 27°26' E 153°07'0 0.1
2014-Jul-11 04:31S 27°26' E 153°07'0 0.1
2014-Jul-11 03:31S 27°26' E 153°07'0 0.1
2014-Jul-11 02:28S 27°26' E 153°07'0 0.0
2014-Jul-11 01:28S 27°26' E 153°07'0 0.1
2014-Jul-11 00:31S 27°26' E 153°07'0 0.1
2014-Jul-10 23:33S 27°26' E 153°07'0 0.0
2014-Jul-10 22:33S 27°26' E 153°07'0 0.0
2014-Jul-10 21:33S 27°26' E 153°07'0 0.0
2014-Jul-10 20:32S 27°26' E 153°07'0 0.0
2014-Jul-10 19:32S 27°26' E 153°07'0 0.1
2014-Jul-10 18:32S 27°26' E 153°07'0 0.1
2014-Jul-10 17:33S 27°26' E 153°07'0 0.0
2014-Jul-10 16:33S 27°26' E 153°07'0 0.1
2014-Jul-10 15:32S 27°26' E 153°07'0 0.0
2014-Jul-10 14:32S 27°26' E 153°07'0 0.1
2014-Jul-10 13:32S 27°26' E 153°07'0 0.0
2014-Jul-10 12:32S 27°26' E 153°07'0 0.0
2014-Jul-10 11:32S 27°26' E 153°07'0 0.0
2014-Jul-10 10:32S 27°26' E 153°07'0 0.1
2014-Jul-10 09:32S 27°26' E 153°07'0 0.0
2014-Jul-10 08:26S 27°26' E 153°07'0 0.1
2014-Jul-10 07:26S 27°26' E 153°07'0 0.1
2014-Jul-10 06:32S 27°26' E 153°07'0 0.0
2014-Jul-10 05:26S 27°26' E 153°07'0 0.0
2014-Jul-10 03:32S 27°26' E 153°07'0 0.0
2014-Jul-10 02:08S 27°26' E 153°07'0 0.0
2014-Jul-10 01:11S 27°26' E 153°07'0 0.0
2014-Jul-10 00:26S 27°26' E 153°07'0 0.0
2014-Jul-09 23:26S 27°26' E 153°07'0 0.0
2014-Jul-09 22:32S 27°26' E 153°07'0 0.0
2014-Jul-09 21:32S 27°26' E 153°07'0 0.1
2014-Jul-09 20:32S 27°26' E 153°07'0 0.0
2014-Jul-09 19:32S 27°26' E 153°07'0 0.0
2014-Jul-09 18:32S 27°26' E 153°07'0 0.1
2014-Jul-09 17:32S 27°26' E 153°07'0 0.0
2014-Jul-09 16:32S 27°26' E 153°07'0 0.1
2014-Jul-09 15:32S 27°26' E 153°07'0 0.0
2014-Jul-09 14:32S 27°26' E 153°07'0 0.1
2014-Jul-09 13:32S 27°26' E 153°07'0 0.1
2014-Jul-09 12:32S 27°26' E 153°07'0 0.1
2014-Jul-09 11:33S 27°26' E 153°07'0 0.1
2014-Jul-09 10:33S 27°26' E 153°07'0 0.0
2014-Jul-09 09:34S 27°26' E 153°07'2 1.8
2014-Jul-09 08:34S 27°25' E 153°09'7 7.0
2014-Jul-09 07:33S 27°18' E 153°13'1110.6
2014-Jul-09 06:34S 27°11' E 153°21'1212.4
2014-Jul-09 05:34S 26°60' E 153°14'1111.0
2014-Jul-09 04:34S 26°49' E 153°10'8 7.6
2014-Jul-09 03:33S 26°42' E 153°13'2 1.6
2014-Jul-09 02:08S 26°41' E 153°15'0 0.1
2014-Jul-09 01:32S 26°41' E 153°15'0 0.0
2014-Jul-09 00:28S 26°41' E 153°15'0 0.0
2014-Jul-08 23:31S 26°41' E 153°15'  

Dump ship's entire track history